Time;durP1;ratioP1;P1;durP2;ratioP2;P2;SDS_P1;SDS_P2;PMS_P1;PMS_P2;Temp;Humidity;BMP_temperature;BMP_pressure;BME280_temperature;BME280_humidity;BME280_pressure;Samples;Min_cycle;Max_cycle;Signal;HPM_P1;HPM_P2
2024/02/26 00:00:16;;;;;;;1.00;0.80;;;8.30;99.90;;;;;;5054151;28;20171;-71
2024/02/26 00:02:41;;;;;;;1.47;1.00;;;8.30;99.90;;;;;;5053687;28;20638;-71
2024/02/26 00:05:08;;;;;;;2.00;1.00;;;8.30;99.90;;;;;;5054324;28;20511;-71
2024/02/26 00:07:34;;;;;;;2.20;1.20;;;8.30;99.90;;;;;;5054159;28;20209;-70
2024/02/26 00:09:59;;;;;;;1.30;1.13;;;8.30;99.90;;;;;;5054130;28;20409;-71
2024/02/26 00:12:25;;;;;;;1.43;1.00;;;8.30;99.90;;;;;;5053929;28;20167;-71
2024/02/26 00:14:52;;;;;;;1.47;1.13;;;8.30;99.90;;;;;;5054095;28;20170;-71
2024/02/26 00:17:18;;;;;;;0.90;0.80;;;8.40;99.90;;;;;;5053916;28;20195;-71
2024/02/26 00:19:43;;;;;;;7.60;1.30;;;8.40;99.90;;;;;;5054084;28;20455;-71
2024/02/26 00:22:09;;;;;;;0.97;0.80;;;8.30;99.90;;;;;;5053666;28;20237;-71
2024/02/26 00:24:34;;;;;;;2.03;1.43;;;8.40;99.90;;;;;;5053976;28;20163;-71
2024/02/26 00:27:00;;;;;;;3.97;0.97;;;8.40;99.90;;;;;;5053884;28;20186;-71
2024/02/26 00:29:25;;;;;;;1.43;1.00;;;8.40;99.90;;;;;;5051467;28;20174;-70
2024/02/26 00:31:51;;;;;;;1.10;0.80;;;8.40;99.90;;;;;;5053625;28;20167;-71
2024/02/26 00:34:17;;;;;;;2.67;0.80;;;8.40;99.90;;;;;;5053726;28;20203;-71
2024/02/26 00:36:42;;;;;;;1.83;1.20;;;8.40;99.90;;;;;;5053633;28;20202;-71
2024/02/26 00:39:09;;;;;;;1.47;1.03;;;8.40;99.90;;;;;;5053721;28;20642;-71
2024/02/26 00:41:38;;;;;;;1.20;0.97;;;8.40;99.90;;;;;;5053457;28;20167;-70
2024/02/26 00:44:04;;;;;;;0.90;0.80;;;8.40;99.90;;;;;;5052202;28;20401;-71
2024/02/26 00:46:29;;;;;;;1.40;1.27;;;8.30;99.90;;;;;;5052220;28;20436;-71
2024/02/26 00:48:55;;;;;;;0.93;0.80;;;8.30;99.90;;;;;;5052298;28;20175;-71
2024/02/26 00:51:20;;;;;;;1.83;1.03;;;8.20;99.90;;;;;;5051933;28;20171;-71
2024/02/26 00:53:46;;;;;;;0.90;0.60;;;8.10;99.90;;;;;;5052086;28;20236;-71
2024/02/26 00:56:11;;;;;;;1.23;1.00;;;8.20;99.90;;;;;;5052972;28;20198;-71
2024/02/26 00:58:37;;;;;;;6.70;1.00;;;8.10;99.90;;;;;;5053746;28;20641;-70
2024/02/26 01:01:02;;;;;;;1.10;0.90;;;8.10;99.90;;;;;;5052990;28;20167;-70
2024/02/26 01:03:28;;;;;;;2.33;1.10;;;8.10;99.90;;;;;;5051963;28;20178;-70
2024/02/26 01:05:54;;;;;;;0.90;0.80;;;8.20;99.90;;;;;;5053183;28;20591;-71
2024/02/26 01:08:20;;;;;;;1.37;0.93;;;8.20;99.90;;;;;;5053025;28;20939;-71
2024/02/26 01:10:45;;;;;;;1.30;0.80;;;8.20;99.90;;;;;;5052984;28;20166;-70
2024/02/26 01:13:11;;;;;;;0.80;0.63;;;8.20;99.90;;;;;;5052803;28;20244;-70
2024/02/26 01:15:36;;;;;;;1.23;1.03;;;8.20;99.90;;;;;;5053010;28;20172;-70
2024/02/26 01:18:02;;;;;;;1.13;1.03;;;8.20;99.90;;;;;;5052785;28;20203;-70
2024/02/26 01:20:28;;;;;;;3.23;1.00;;;8.20;99.90;;;;;;5052853;28;20171;-71
2024/02/26 01:22:53;;;;;;;2.60;0.90;;;8.20;99.90;;;;;;5052534;28;20171;-70
2024/02/26 01:25:19;;;;;;;1.63;1.53;;;8.20;99.90;;;;;;5053006;28;20177;-70
2024/02/26 01:27:44;;;;;;;1.30;1.00;;;8.10;99.90;;;;;;5052678;28;20194;-71
2024/02/26 01:30:11;;;;;;;1.53;0.80;;;8.10;99.90;;;;;;5052742;28;20167;-70
2024/02/26 01:32:36;;;;;;;1.00;0.90;;;8.10;99.90;;;;;;5052688;28;20713;-70
2024/02/26 01:35:07;;;;;;;1.50;0.87;;;8.20;99.90;;;;;;5052579;28;20488;-70
2024/02/26 01:37:32;;;;;;;1.33;0.83;;;8.10;99.90;;;;;;5052372;28;20254;-71
2024/02/26 01:39:58;;;;;;;1.47;0.80;;;8.20;99.90;;;;;;5050974;28;20402;-71
2024/02/26 01:42:24;;;;;;;1.10;1.00;;;8.20;99.90;;;;;;5052275;28;20638;-70
2024/02/26 01:44:49;;;;;;;1.03;0.80;;;8.10;99.90;;;;;;5052503;28;20175;-71
2024/02/26 01:47:15;;;;;;;1.10;0.70;;;8.20;99.90;;;;;;5052353;28;20269;-71
2024/02/26 01:49:40;;;;;;;1.33;1.17;;;8.20;99.90;;;;;;5052825;28;20163;-71
2024/02/26 01:52:08;;;;;;;1.30;1.00;;;8.20;99.90;;;;;;5051816;28;20173;-71
2024/02/26 01:54:38;;;;;;;1.00;0.90;;;8.20;99.90;;;;;;5052346;28;20159;-70
2024/02/26 01:57:05;;;;;;;1.30;1.20;;;8.20;99.90;;;;;;5052199;28;20547;-71
2024/02/26 01:59:32;;;;;;;0.80;0.60;;;8.20;99.90;;;;;;5052221;28;20402;-70
2024/02/26 02:02:01;;;;;;;1.27;1.13;;;8.20;99.90;;;;;;5051954;28;20397;-71
2024/02/26 02:04:27;;;;;;;0.90;0.80;;;8.10;99.90;;;;;;5051980;28;20509;-71
2024/02/26 02:06:53;;;;;;;1.00;0.80;;;8.10;99.90;;;;;;5052058;28;20436;-70
2024/02/26 02:09:19;;;;;;;7.33;1.10;;;8.00;99.90;;;;;;5052324;28;20393;-71
2024/02/26 02:11:45;;;;;;;3.10;0.97;;;8.00;99.90;;;;;;5050393;28;20424;-72
2024/02/26 02:14:10;;;;;;;2.00;0.80;;;8.00;99.90;;;;;;5050679;28;20202;-70
2024/02/26 02:16:36;;;;;;;1.40;0.97;;;8.00;99.90;;;;;;5050652;28;20293;-71
2024/02/26 02:19:01;;;;;;;1.67;1.10;;;7.90;99.90;;;;;;5051981;28;20174;-71
2024/02/26 02:21:27;;;;;;;1.10;0.83;;;7.90;99.90;;;;;;5051657;28;20202;-71
2024/02/26 02:23:52;;;;;;;0.80;0.60;;;7.90;99.90;;;;;;5051897;28;20159;-70
2024/02/26 02:26:19;;;;;;;3.13;0.90;;;7.80;99.90;;;;;;5051742;28;20279;-71
2024/02/26 02:28:45;;;;;;;2.70;1.20;;;7.80;99.90;;;;;;5051857;28;20206;-71
2024/02/26 02:31:11;;;;;;;1.10;0.70;;;7.80;99.90;;;;;;5051537;28;20401;-70
2024/02/26 02:33:37;;;;;;;0.90;0.70;;;7.90;99.90;;;;;;5051694;28;20416;-71
2024/02/26 02:36:03;;;;;;;0.80;0.60;;;7.90;99.90;;;;;;5051690;28;20409;-70
2024/02/26 02:38:30;;;;;;;1.27;1.17;;;7.90;99.90;;;;;;5051678;28;20187;-70
2024/02/26 02:40:55;;;;;;;1.33;0.90;;;7.90;99.90;;;;;;5051672;28;20493;-71
2024/02/26 02:43:21;;;;;;;3.70;0.93;;;7.90;99.90;;;;;;5051203;28;20436;-70
2024/02/26 02:45:46;;;;;;;1.27;0.83;;;7.90;99.90;;;;;;5051664;28;20159;-71
2024/02/26 02:48:12;;;;;;;2.40;0.77;;;7.80;99.90;;;;;;5050205;28;20182;-71
2024/02/26 02:50:38;;;;;;;3.73;1.27;;;7.90;99.90;;;;;;5050372;28;20175;-71
2024/02/26 02:53:03;;;;;;;0.80;0.70;;;7.90;99.90;;;;;;5053519;28;20186;-71
2024/02/26 02:55:29;;;;;;;0.90;0.80;;;7.90;99.90;;;;;;5054367;28;20409;-70
2024/02/26 02:57:54;;;;;;;2.93;0.80;;;7.80;99.90;;;;;;5055377;28;20230;-70
2024/02/26 03:00:22;;;;;;;1.30;0.90;;;7.90;99.90;;;;;;5054506;28;20262;-70
2024/02/26 03:02:48;;;;;;;1.27;1.10;;;7.80;99.90;;;;;;5053989;28;20539;-71
2024/02/26 03:05:14;;;;;;;1.03;0.80;;;7.80;99.90;;;;;;5055490;28;20401;-70
2024/02/26 03:07:39;;;;;;;1.10;1.00;;;7.70;99.90;;;;;;5055256;28;20428;-71
2024/02/26 03:10:05;;;;;;;1.33;1.00;;;7.70;99.90;;;;;;5054074;28;20175;-70
2024/02/26 03:12:31;;;;;;;1.00;0.80;;;7.80;99.90;;;;;;5055041;28;20588;-70
2024/02/26 03:14:57;;;;;;;0.80;0.70;;;7.80;99.90;;;;;;5055274;28;20254;-71
2024/02/26 03:17:24;;;;;;;1.40;1.20;;;7.80;99.90;;;;;;5055072;28;20890;-71
2024/02/26 03:19:53;;;;;;;0.90;0.80;;;7.80;99.90;;;;;;5055287;28;20190;-71
2024/02/26 03:22:18;;;;;;;1.27;0.90;;;7.80;99.90;;;;;;5054755;28;20792;-71
2024/02/26 03:24:44;;;;;;;1.17;0.80;;;7.80;99.90;;;;;;5053841;28;20463;-71
2024/02/26 03:27:10;;;;;;;1.17;1.07;;;7.70;99.90;;;;;;5055011;28;20542;-71
2024/02/26 03:29:37;;;;;;;0.87;0.80;;;7.70;99.90;;;;;;5054987;28;20171;-71
2024/02/26 03:32:02;;;;;;;2.70;1.20;;;7.70;99.90;;;;;;5054907;28;20828;-71
2024/02/26 03:34:28;;;;;;;8.97;1.53;;;7.70;99.90;;;;;;5053547;28;20492;-71
2024/02/26 03:36:54;;;;;;;1.10;1.00;;;7.70;99.90;;;;;;5054707;28;20254;-71
2024/02/26 03:39:19;;;;;;;0.90;0.77;;;7.70;99.90;;;;;;5054415;28;20167;-70
2024/02/26 03:41:45;;;;;;;1.00;0.87;;;7.70;99.90;;;;;;5053260;28;20167;-71
2024/02/26 03:44:10;;;;;;;1.87;1.20;;;7.70;99.90;;;;;;5054776;28;20526;-70
2024/02/26 03:46:36;;;;;;;5.13;3.77;;;7.70;99.90;;;;;;5053626;28;20708;-70
2024/02/26 03:49:01;;;;;;;1.10;0.90;;;7.70;99.90;;;;;;5054907;28;20178;-71
2024/02/26 03:51:31;;;;;;;2.57;1.00;;;7.60;99.90;;;;;;5054414;28;20167;-71
2024/02/26 03:53:57;;;;;;;0.80;0.60;;;7.70;99.90;;;;;;5054536;28;20179;-71
2024/02/26 03:56:23;;;;;;;1.47;0.73;;;7.70;99.90;;;;;;5054336;28;20456;-71
2024/02/26 03:58:48;;;;;;;2.63;1.00;;;7.70;99.90;;;;;;5054452;28;20892;-70
2024/02/26 04:01:14;;;;;;;2.33;1.97;;;7.80;99.90;;;;;;5054302;28;20163;-71
2024/02/26 04:03:39;;;;;;;1.67;0.90;;;7.80;99.90;;;;;;5054332;28;20167;-71
2024/02/26 04:06:08;;;;;;;1.53;0.90;;;7.70;99.90;;;;;;5054380;28;20618;-71
2024/02/26 04:08:33;;;;;;;18.07;9.90;;;7.70;99.90;;;;;;5052949;28;20167;-71
2024/02/26 04:10:59;;;;;;;3.40;1.73;;;7.70;99.90;;;;;;5052984;28;20412;-71
2024/02/26 04:13:25;;;;;;;4.03;1.40;;;7.70;99.90;;;;;;5053925;28;20680;-70
2024/02/26 04:15:50;;;;;;;1.53;0.83;;;7.70;99.90;;;;;;5052960;28;20228;-70
2024/02/26 04:18:16;;;;;;;1.70;1.30;;;7.80;99.90;;;;;;5054033;28;20460;-70
2024/02/26 04:20:44;;;;;;;2.37;0.97;;;7.80;99.90;;;;;;5053870;28;20170;-71
2024/02/26 04:23:09;;;;;;;1.10;0.97;;;7.70;99.90;;;;;;5053800;28;20170;-70
2024/02/26 04:25:35;;;;;;;1.17;0.93;;;7.60;99.90;;;;;;5053850;28;20402;-71
2024/02/26 04:28:00;;;;;;;3.77;0.80;;;7.60;99.90;;;;;;5052572;28;20194;-71
2024/02/26 04:30:26;;;;;;;0.80;0.70;;;7.60;99.90;;;;;;5053993;28;20168;-71
2024/02/26 04:32:52;;;;;;;1.87;0.80;;;7.60;99.90;;;;;;5053561;28;20167;-71
2024/02/26 04:35:17;;;;;;;1.80;0.93;;;7.50;99.90;;;;;;5053866;28;20170;-72
2024/02/26 04:37:43;;;;;;;2.50;1.37;;;7.60;99.90;;;;;;5052416;28;20214;-71
2024/02/26 04:40:09;;;;;;;2.03;0.80;;;7.60;99.90;;;;;;5054171;28;20527;-70
2024/02/26 04:42:34;;;;;;;2.30;1.20;;;7.60;99.90;;;;;;5053309;28;20174;-71
2024/02/26 04:45:00;;;;;;;2.23;1.10;;;7.60;99.90;;;;;;5052375;28;20630;-70
2024/02/26 04:47:25;;;;;;;0.80;0.70;;;7.70;99.90;;;;;;5053534;28;20278;-70
2024/02/26 04:49:51;;;;;;;1.23;0.70;;;7.60;99.90;;;;;;5053599;28;20370;-70
2024/02/26 04:52:18;;;;;;;3.70;1.07;;;7.60;99.90;;;;;;5053106;28;20529;-70
2024/02/26 04:54:44;;;;;;;1.10;0.80;;;7.60;99.90;;;;;;5053447;28;20918;-71
2024/02/26 04:57:09;;;;;;;3.40;1.00;;;7.60;99.90;;;;;;5052006;28;20526;-70
2024/02/26 04:59:35;;;;;;;1.20;1.07;;;7.60;99.90;;;;;;5053374;28;20167;-71
2024/02/26 05:02:00;;;;;;;1.37;1.13;;;7.60;99.90;;;;;;5053079;28;20626;-71
2024/02/26 05:04:26;;;;;;;1.00;0.77;;;7.60;99.90;;;;;;5052057;28;20163;-72
2024/02/26 05:06:51;;;;;;;1.73;1.13;;;7.60;99.90;;;;;;5053172;28;20191;-70
2024/02/26 05:09:18;;;;;;;1.03;0.93;;;7.60;99.90;;;;;;5053465;28;20216;-71
2024/02/26 05:11:44;;;;;;;9.07;6.27;;;7.60;99.90;;;;;;5052823;28;20250;-71
2024/02/26 05:14:10;;;;;;;8.70;5.83;;;7.50;99.90;;;;;;5053125;28;20401;-71
2024/02/26 05:16:35;;;;;;;2.60;2.13;;;7.50;99.90;;;;;;5052273;28;21102;-71
2024/02/26 05:19:01;;;;;;;1.40;0.90;;;7.60;99.90;;;;;;5051735;28;20278;-72
2024/02/26 05:21:26;;;;;;;1.50;1.40;;;7.50;99.90;;;;;;5052499;28;20541;-72
2024/02/26 05:23:52;;;;;;;1.00;0.90;;;7.50;99.90;;;;;;5052831;28;20622;-71
2024/02/26 05:26:21;;;;;;;1.50;1.17;;;7.60;99.90;;;;;;5051490;28;20796;-72
2024/02/26 05:28:47;;;;;;;2.47;0.90;;;7.50;99.90;;;;;;5051782;28;20256;-72
2024/02/26 05:31:13;;;;;;;2.80;1.17;;;7.50;99.90;;;;;;5052557;28;20498;-72
2024/02/26 05:33:39;;;;;;;1.03;0.93;;;7.50;99.90;;;;;;5052598;28;20649;-72
2024/02/26 05:36:05;;;;;;;1.53;0.93;;;7.50;99.90;;;;;;5052620;28;20394;-72
2024/02/26 05:38:31;;;;;;;1.20;1.10;;;7.50;99.90;;;;;;5052574;28;20183;-72
2024/02/26 05:41:00;;;;;;;1.97;0.97;;;7.50;99.90;;;;;;5052532;28;20753;-72
2024/02/26 05:43:26;;;;;;;2.20;1.57;;;7.50;99.90;;;;;;5050964;28;20409;-71
2024/02/26 05:45:52;;;;;;;1.80;1.20;;;7.50;99.90;;;;;;5052407;28;20405;-71
2024/02/26 05:48:19;;;;;;;1.23;1.10;;;7.40;99.90;;;;;;5051092;28;20437;-71
2024/02/26 05:50:45;;;;;;;1.90;0.93;;;7.40;99.90;;;;;;5051169;28;20174;-70
2024/02/26 05:53:10;;;;;;;1.67;1.10;;;7.40;99.90;;;;;;5050746;28;20452;-71
2024/02/26 05:55:37;;;;;;;1.10;0.80;;;7.40;99.90;;;;;;5051020;28;20518;-71
2024/02/26 05:58:02;;;;;;;0.93;0.80;;;7.50;99.90;;;;;;5052200;28;20198;-70
2024/02/26 06:00:28;;;;;;;1.70;1.20;;;7.50;99.90;;;;;;5052187;28;20467;-70
2024/02/26 06:02:54;;;;;;;1.50;1.00;;;7.50;99.90;;;;;;5052076;28;20163;-71
2024/02/26 06:05:19;;;;;;;1.30;1.10;;;7.40;99.90;;;;;;5052353;28;20173;-70
2024/02/26 06:07:45;;;;;;;1.47;1.00;;;7.40;99.90;;;;;;5052085;28;20244;-71
2024/02/26 06:10:10;;;;;;;2.23;1.10;;;7.30;99.90;;;;;;5052066;28;20171;-71
2024/02/26 06:12:36;;;;;;;17.33;8.33;;;7.40;99.90;;;;;;5051845;28;20167;-70
2024/02/26 06:15:02;;;;;;;2.30;1.90;;;7.40;99.90;;;;;;5052250;28;20642;-71
2024/02/26 06:17:28;;;;;;;1.53;1.43;;;7.40;99.90;;;;;;5052154;28;20211;-71
2024/02/26 06:19:53;;;;;;;1.30;1.00;;;7.30;99.90;;;;;;5051978;28;20908;-71
2024/02/26 06:22:19;;;;;;;2.70;1.43;;;7.30;99.90;;;;;;5051745;28;20167;-71
2024/02/26 06:24:44;;;;;;;1.83;1.23;;;7.30;99.90;;;;;;5051851;28;20171;-71
2024/02/26 06:27:10;;;;;;;1.80;1.33;;;7.20;99.90;;;;;;5049632;28;20605;-71
2024/02/26 06:29:35;;;;;;;1.53;1.43;;;7.30;99.90;;;;;;5051844;28;20171;-70
2024/02/26 06:32:01;;;;;;;1.40;0.90;;;7.30;99.90;;;;;;5051586;28;20170;-72
2024/02/26 06:34:26;;;;;;;1.30;1.13;;;7.30;99.90;;;;;;5051808;28;20634;-71
2024/02/26 06:36:52;;;;;;;3.43;1.40;;;7.30;99.90;;;;;;5051635;28;20578;-71
2024/02/26 06:39:18;;;;;;;2.20;1.13;;;7.30;99.90;;;;;;5051643;28;20174;-71
2024/02/26 06:41:46;;;;;;;2.10;1.67;;;7.20;99.90;;;;;;5051697;28;20159;-70
2024/02/26 06:44:12;;;;;;;1.63;1.30;;;7.20;99.90;;;;;;5051954;28;20416;-71
2024/02/26 06:46:38;;;;;;;1.83;1.40;;;7.30;99.90;;;;;;5051934;28;20516;-71
2024/02/26 06:49:04;;;;;;;1.40;1.20;;;7.30;99.90;;;;;;5050354;28;20496;-71
2024/02/26 06:51:29;;;;;;;1.20;1.00;;;7.30;99.90;;;;;;5051527;28;20546;-70
2024/02/26 06:53:55;;;;;;;1.90;1.63;;;7.20;99.90;;;;;;5051374;28;20190;-70
2024/02/26 06:56:20;;;;;;;1.37;1.03;;;7.20;99.90;;;;;;5050234;28;20174;-70
2024/02/26 06:58:45;;;;;;;2.80;1.10;;;7.20;99.90;;;;;;5051595;28;20174;-71
2024/02/26 07:01:12;;;;;;;1.50;1.20;;;7.20;99.90;;;;;;5051190;28;20182;-71
2024/02/26 07:03:40;;;;;;;1.20;1.10;;;7.20;99.90;;;;;;5051494;28;20171;-72
2024/02/26 07:06:06;;;;;;;1.67;1.20;;;7.30;99.90;;;;;;5051514;28;20467;-71
2024/02/26 07:08:32;;;;;;;3.00;1.43;;;7.30;99.90;;;;;;5050049;28;20499;-72
2024/02/26 07:10:57;;;;;;;1.40;0.80;;;7.30;99.90;;;;;;5050303;28;20444;-71
2024/02/26 07:13:23;;;;;;;1.33;0.93;;;7.40;99.90;;;;;;5051256;28;20174;-71
2024/02/26 07:15:49;;;;;;;1.47;1.20;;;7.40;99.90;;;;;;5051560;28;20171;-71
2024/02/26 07:18:14;;;;;;;2.07;1.70;;;7.40;99.90;;;;;;5051395;28;20549;-71
2024/02/26 07:20:40;;;;;;;1.70;1.60;;;7.40;99.90;;;;;;5051414;28;20170;-71
2024/02/26 07:23:06;;;;;;;1.83;1.23;;;7.40;99.90;;;;;;5050991;28;20167;-71
2024/02/26 07:25:32;;;;;;;1.40;1.30;;;7.30;99.90;;;;;;5050060;28;20228;-71
2024/02/26 07:27:57;;;;;;;2.90;1.30;;;7.30;99.90;;;;;;5051268;28;20433;-71
2024/02/26 07:30:24;;;;;;;1.53;1.00;;;7.30;99.90;;;;;;5051513;28;20627;-70
2024/02/26 07:32:50;;;;;;;1.57;1.30;;;7.40;99.90;;;;;;5051127;28;20259;-70
2024/02/26 07:35:16;;;;;;;1.70;1.37;;;7.40;99.90;;;;;;5051232;28;20437;-71
2024/02/26 07:37:42;;;;;;;1.47;1.37;;;7.30;99.90;;;;;;5049931;28;20206;-71
2024/02/26 07:40:08;;;;;;;3.43;1.23;;;7.40;99.90;;;;;;5053729;28;20775;-70
2024/02/26 07:42:33;;;;;;;3.93;1.40;;;7.40;99.90;;;;;;5053408;28;20676;-71
2024/02/26 07:44:59;;;;;;;1.90;1.30;;;7.40;99.90;;;;;;5054841;28;20417;-68
2024/02/26 07:47:25;;;;;;;1.60;1.27;;;7.40;99.90;;;;;;5054579;28;20190;-66
2024/02/26 07:49:50;;;;;;;1.97;1.23;;;7.40;99.90;;;;;;5045427;28;20175;-67
2024/02/26 07:52:16;;;;;;;1.63;1.33;;;7.50;99.90;;;;;;5043395;28;20282;-66
2024/02/26 07:54:41;;;;;;;2.17;1.50;;;7.50;99.90;;;;;;5041535;28;20226;-68
2024/02/26 07:57:07;;;;;;;1.63;1.53;;;7.50;99.90;;;;;;5034667;28;20278;-67
2024/02/26 07:59:32;;;;;;;1.77;1.10;;;7.60;99.90;;;;;;5034683;28;20206;-68
2024/02/26 08:01:58;;;;;;;3.83;1.40;;;7.60;99.90;;;;;;5034423;28;20546;-67
2024/02/26 08:04:25;;;;;;;2.07;1.27;;;7.60;99.90;;;;;;5034975;28;20176;-68
2024/02/26 08:06:50;;;;;;;1.50;1.20;;;7.60;99.90;;;;;;5034341;28;20768;-67
2024/02/26 08:09:16;;;;;;;1.30;1.00;;;7.60;99.90;;;;;;5034512;28;20897;-68
2024/02/26 08:11:41;;;;;;;1.67;1.17;;;7.70;99.90;;;;;;5034195;28;20172;-68
2024/02/26 08:14:07;;;;;;;1.97;1.40;;;7.60;99.90;;;;;;5034501;28;20187;-68
2024/02/26 08:16:32;;;;;;;5.00;1.23;;;7.70;99.90;;;;;;5034201;28;20203;-68
2024/02/26 08:18:58;;;;;;;1.73;1.00;;;7.70;99.90;;;;;;5034233;28;20163;-67
2024/02/26 08:21:23;;;;;;;1.70;1.47;;;7.70;99.90;;;;;;5033948;28;20218;-68
2024/02/26 08:23:49;;;;;;;1.97;1.50;;;7.70;99.90;;;;;;5034121;28;20160;-67
2024/02/26 08:26:14;;;;;;;1.60;1.40;;;7.80;99.90;;;;;;5034077;28;20263;-68
2024/02/26 08:28:40;;;;;;;5.20;1.23;;;7.80;99.90;;;;;;5034163;28;20639;-67
2024/02/26 08:31:06;;;;;;;2.40;1.20;;;7.80;99.90;;;;;;5033787;28;20163;-67
2024/02/26 08:33:33;;;;;;;1.63;1.53;;;7.80;99.90;;;;;;5034072;28;20164;-68
2024/02/26 08:35:59;;;;;;;2.07;1.30;;;7.80;99.90;;;;;;5033873;28;20394;-68
2024/02/26 08:38:25;;;;;;;1.83;1.13;;;7.90;99.90;;;;;;5033778;28;20524;-68
2024/02/26 08:40:50;;;;;;;2.40;1.57;;;7.80;99.90;;;;;;5034020;28;20666;-68
2024/02/26 08:43:16;;;;;;;1.97;1.10;;;7.80;99.90;;;;;;5033523;28;20164;-68
2024/02/26 08:45:41;;;;;;;2.13;1.30;;;7.80;99.90;;;;;;5033784;28;20164;-67
2024/02/26 08:48:07;;;;;;;1.47;1.37;;;7.80;99.90;;;;;;5033626;28;20544;-67
2024/02/26 08:50:33;;;;;;;3.37;1.30;;;7.80;99.90;;;;;;5032620;28;20195;-68
2024/02/26 08:53:00;;;;;;;1.47;1.37;;;7.80;99.90;;;;;;5040494;28;20422;-67
2024/02/26 08:55:26;;;;;;;2.30;1.20;;;7.80;99.90;;;;;;5042722;28;20159;-67
2024/02/26 08:57:52;;;;;;;1.57;1.47;;;7.80;99.90;;;;;;5043840;28;20464;-68
2024/02/26 09:00:20;;;;;;;2.63;1.83;;;7.80;99.90;;;;;;5042188;28;20163;-68
2024/02/26 09:02:46;;;;;;;1.60;1.10;;;7.80;99.90;;;;;;5042425;28;20713;-67
2024/02/26 09:05:12;;;;;;;1.60;1.20;;;7.80;99.90;;;;;;5043724;28;20900;-67
2024/02/26 09:07:37;;;;;;;3.43;1.60;;;7.80;99.90;;;;;;5041967;28;20422;-67
2024/02/26 09:10:04;;;;;;;1.83;1.33;;;7.80;99.90;;;;;;5042859;28;20653;-68
2024/02/26 09:12:30;;;;;;;1.47;1.30;;;7.80;99.90;;;;;;5033002;28;20630;-67
2024/02/26 09:14:57;;;;;;;2.80;1.93;;;7.80;99.90;;;;;;5033132;28;20411;-67
2024/02/26 09:17:23;;;;;;;2.67;1.30;;;7.80;99.90;;;;;;5032963;28;20202;-68
2024/02/26 09:19:48;;;;;;;2.23;1.60;;;7.80;99.90;;;;;;5032927;28;20398;-67
2024/02/26 09:22:14;;;;;;;1.63;1.47;;;7.80;99.90;;;;;;5032830;28;20217;-68
2024/02/26 09:24:39;;;;;;;3.60;1.83;;;7.90;99.90;;;;;;5033020;28;20254;-67
2024/02/26 09:27:05;;;;;;;2.70;1.73;;;7.90;99.90;;;;;;5032843;28;20184;-67
2024/02/26 09:29:30;;;;;;;2.07;1.30;;;8.00;99.90;;;;;;5032924;28;20232;-68
2024/02/26 09:31:56;;;;;;;1.90;1.50;;;8.10;99.90;;;;;;5032642;28;20168;-67
2024/02/26 09:34:22;;;;;;;2.37;1.47;;;8.10;99.90;;;;;;5032758;28;20175;-68
2024/02/26 09:36:47;;;;;;;1.93;1.77;;;8.00;99.90;;;;;;5032542;28;20210;-68
2024/02/26 09:39:14;;;;;;;2.00;1.80;;;8.00;99.90;;;;;;5032689;28;20175;-67
2024/02/26 09:41:40;;;;;;;2.37;2.00;;;8.00;99.90;;;;;;5032456;28;20535;-67
2024/02/26 09:44:06;;;;;;;1.93;1.63;;;8.00;99.90;;;;;;5032596;28;20398;-67
2024/02/26 09:46:32;;;;;;;2.50;1.87;;;8.00;99.90;;;;;;5032246;28;20832;-67
2024/02/26 09:48:58;;;;;;;1.90;1.37;;;8.00;99.90;;;;;;5032391;28;20514;-67
2024/02/26 09:51:27;;;;;;;2.67;2.03;;;8.00;99.90;;;;;;5032284;28;20464;-67
2024/02/26 09:53:53;;;;;;;3.90;1.67;;;8.00;99.90;;;;;;5032368;28;20430;-67
2024/02/26 09:56:19;;;;;;;2.00;1.80;;;8.10;99.90;;;;;;5032219;28;20394;-68
2024/02/26 09:58:48;;;;;;;2.03;1.83;;;8.10;99.90;;;;;;5032414;28;20438;-68
2024/02/26 10:01:18;;;;;;;3.17;1.63;;;8.10;99.90;;;;;;5031819;28;20456;-67
2024/02/26 10:03:44;;;;;;;1.87;1.57;;;8.20;99.90;;;;;;5032260;28;20402;-67
2024/02/26 10:06:11;;;;;;;1.53;1.43;;;8.20;99.90;;;;;;5032156;28;20407;-66
2024/02/26 10:08:37;;;;;;;1.60;1.50;;;8.20;99.90;;;;;;5032209;28;20399;-67
2024/02/26 10:11:05;;;;;;;2.63;1.50;;;8.30;99.90;;;;;;5032185;28;20411;-67
2024/02/26 10:13:30;;;;;;;3.93;1.77;;;8.30;99.90;;;;;;5033186;28;20417;-71
2024/02/26 10:15:56;;;;;;;2.23;1.70;;;8.30;99.90;;;;;;5032478;28;20402;-69
2024/02/26 10:18:24;;;;;;;2.27;1.97;;;8.40;99.90;;;;;;5031907;28;20260;-67
2024/02/26 10:21:02;;;;;;;2.47;1.80;;;8.50;99.90;;;;;;5032096;28;20542;-67
2024/02/26 10:23:27;;;;;;;1.57;1.47;;;8.50;99.90;;;;;;5031436;28;20916;-67
2024/02/26 10:25:56;;;;;;;5.97;1.83;;;8.60;99.90;;;;;;5031916;28;20406;-67
2024/02/26 10:28:23;;;;;;;2.50;1.97;;;8.70;99.90;;;;;;5031797;28;20198;-67
2024/02/26 10:30:50;;;;;;;3.40;2.10;;;8.80;99.90;;;;;;5031900;28;20463;-67
2024/02/26 10:33:16;;;;;;;5.17;2.63;;;8.90;99.90;;;;;;5031532;28;20413;-67
2024/02/26 10:35:48;;;;;;;3.77;2.10;;;9.10;99.90;;;;;;5031885;28;20402;-67
2024/02/26 10:38:16;;;;;;;2.60;1.83;;;9.30;99.90;;;;;;5031689;28;20250;-67
2024/02/26 10:40:42;;;;;;;3.10;2.00;;;9.50;99.90;;;;;;5031809;28;20401;-67
2024/02/26 10:43:07;;;;;;;2.30;2.10;;;9.70;99.90;;;;;;5031180;28;20406;-67
2024/02/26 10:45:33;;;;;;;2.50;2.17;;;9.90;99.90;;;;;;5031769;28;20163;-67
2024/02/26 10:48:00;;;;;;;2.40;1.50;;;10.00;99.90;;;;;;5031703;28;20195;-67
2024/02/26 10:50:26;;;;;;;1.90;1.70;;;10.10;99.90;;;;;;5032088;28;20225;-67
2024/02/26 10:52:52;;;;;;;2.90;1.63;;;10.20;99.90;;;;;;5031495;28;20854;-67
2024/02/26 10:55:20;;;;;;;1.97;1.73;;;10.30;99.90;;;;;;5031720;28;20175;-67
2024/02/26 10:57:47;;;;;;;3.00;1.47;;;10.30;99.90;;;;;;5031458;28;20483;-67
2024/02/26 11:00:16;;;;;;;1.40;1.03;;;10.40;99.90;;;;;;5031668;28;20434;-67
2024/02/26 11:02:44;;;;;;;2.63;1.83;;;10.50;99.90;;;;;;5031380;28;20479;-67
2024/02/26 11:05:12;;;;;;;3.27;1.80;;;10.50;99.90;;;;;;5031632;28;20486;-67
2024/02/26 11:07:38;;;;;;;3.20;1.40;;;10.50;99.90;;;;;;5031206;28;20434;-67
2024/02/26 11:10:05;;;;;;;1.37;1.27;;;10.50;99.90;;;;;;5031522;28;20406;-67
2024/02/26 11:12:34;;;;;;;1.70;1.37;;;10.50;99.90;;;;;;5031305;28;20417;-67
2024/02/26 11:15:01;;;;;;;1.63;1.53;;;10.40;99.90;;;;;;5035228;28;20501;-67
2024/02/26 11:17:31;;;;;;;2.60;1.57;;;10.30;99.90;;;;;;5035263;28;20820;-67
2024/02/26 11:19:58;;;;;;;3.20;1.70;;;10.20;99.90;;;;;;5035505;28;20908;-67
2024/02/26 11:22:28;;;;;;;2.07;1.70;;;10.20;99.90;;;;;;5035031;28;20453;-67
2024/02/26 11:24:57;;;;;;;1.30;1.10;;;10.10;99.90;;;;;;5035313;28;20455;-67
2024/02/26 11:27:39;;;;;;;1.90;1.70;;;10.00;99.90;;;;;;5035153;28;20913;-67
2024/02/26 11:30:09;;;;;;;2.67;1.87;;;10.10;99.90;;;;;;5035264;28;20398;-67
2024/02/26 11:32:35;;;;;;;2.13;1.60;;;10.10;99.90;;;;;;5034997;28;20406;-67
2024/02/26 11:35:01;;;;;;;1.90;1.70;;;10.10;99.90;;;;;;5035105;28;20493;-67
2024/02/26 11:37:26;;;;;;;2.43;1.30;;;10.00;99.90;;;;;;5034948;28;20863;-67
2024/02/26 11:39:53;;;;;;;2.17;1.40;;;10.10;99.90;;;;;;5035075;28;20402;-67
2024/02/26 11:42:24;;;;;;;2.63;1.90;;;10.20;99.90;;;;;;5034651;28;20175;-67
2024/02/26 11:44:50;;;;;;;2.70;2.20;;;10.20;99.90;;;;;;5034957;28;20406;-67
2024/02/26 11:47:21;;;;;;;3.43;1.67;;;10.20;99.90;;;;;;5034822;28;20939;-67
2024/02/26 11:49:48;;;;;;;1.77;1.50;;;10.10;99.90;;;;;;5034417;28;20403;-67
2024/02/26 11:52:14;;;;;;;2.37;1.63;;;10.10;99.90;;;;;;5034298;28;20426;-68
2024/02/26 11:54:43;;;;;;;3.03;1.53;;;10.10;99.90;;;;;;5034754;28;20489;-67
2024/02/26 11:57:28;;;;;;;3.30;1.60;;;10.00;99.90;;;;;;5034469;28;20450;-67
2024/02/26 11:59:55;;;;;;;1.83;1.37;;;10.10;99.90;;;;;;5034564;28;20406;-67
2024/02/26 12:02:39;;;;;;;1.83;1.60;;;10.10;99.90;;;;;;5034231;28;20399;-67
2024/02/26 12:05:19;;;;;;;2.77;1.87;;;10.00;99.90;;;;;;5034503;28;20479;-68
2024/02/26 12:07:52;;;;;;;2.20;1.90;;;9.90;99.90;;;;;;5033386;28;20434;-67
2024/02/26 12:10:22;;;;;;;4.10;2.20;;;9.90;99.90;;;;;;5034566;28;20449;-67
2024/02/26 12:12:47;;;;;;;1.90;1.50;;;9.80;99.90;;;;;;5033978;28;20410;-67
2024/02/26 12:15:15;;;;;;;2.20;1.50;;;9.70;99.90;;;;;;5034181;28;20413;-67
2024/02/26 12:17:41;;;;;;;4.87;1.27;;;9.70;99.90;;;;;;5034217;28;20592;-67
2024/02/26 12:20:11;;;;;;;1.70;1.57;;;9.60;99.90;;;;;;5034395;28;20799;-67
2024/02/26 12:22:39;;;;;;;1.90;1.57;;;9.50;99.90;;;;;;5034117;28;20872;-67
2024/02/26 12:25:05;;;;;;;2.80;1.70;;;9.50;99.90;;;;;;5034064;28;20406;-67
2024/02/26 12:27:31;;;;;;;1.90;1.47;;;9.50;99.90;;;;;;5034018;28;20426;-69
2024/02/26 12:29:56;;;;;;;2.40;1.67;;;9.50;99.90;;;;;;5034032;28;20456;-68
2024/02/26 12:32:23;;;;;;;2.13;1.60;;;9.60;99.90;;;;;;5032511;28;20610;-67
2024/02/26 12:34:49;;;;;;;2.60;1.83;;;9.70;99.90;;;;;;5034011;28;20159;-67
2024/02/26 12:37:16;;;;;;;1.93;1.77;;;9.80;99.90;;;;;;5033770;28;20450;-67
2024/02/26 12:39:41;;;;;;;2.47;1.97;;;9.80;99.90;;;;;;5033817;28;20406;-67
2024/02/26 12:42:07;;;;;;;2.30;1.80;;;9.80;99.90;;;;;;5033608;28;20456;-67
2024/02/26 12:44:33;;;;;;;2.37;1.63;;;9.80;99.90;;;;;;5033735;28;20627;-67
2024/02/26 12:47:05;;;;;;;3.37;2.00;;;9.90;99.90;;;;;;5033880;28;20484;-67
2024/02/26 12:49:31;;;;;;;2.27;2.07;;;10.00;99.90;;;;;;5032141;28;20168;-67